TimeMDT,TemperatureF,Dew PointF,Humidity,Sea Level PressureIn,VisibilityMPH,Wind Direction,Wind SpeedMPH,Gust SpeedMPH,PrecipitationIn,Events,Conditions,WindDirDegrees,DateUTC
12:53 AM,27.0,24.1,89,30.12,10.0,Calm,Calm,-,N/A,,Clear,0,2012-10-28 06:53:00
1:53 AM,27.0,24.1,89,30.12,10.0,Calm,Calm,-,N/A,,Mostly Cloudy,0,2012-10-28 07:53:00
2:53 AM,26.1,23.0,88,30.11,10.0,Calm,Calm,-,N/A,,Scattered Clouds,0,2012-10-28 08:53:00
3:53 AM,27.0,25.0,92,30.11,10.0,WNW,4.6,-,N/A,,Mostly Cloudy,290,2012-10-28 09:53:00
4:53 AM,28.0,25.0,88,30.11,10.0,North,5.8,-,N/A,,Scattered Clouds,10,2012-10-28 10:53:00
5:53 AM,27.0,25.0,92,30.13,10.0,Calm,Calm,-,N/A,,Mostly Cloudy,0,2012-10-28 11:53:00
6:53 AM,26.1,24.1,92,30.15,10.0,Calm,Calm,-,N/A,,Mostly Cloudy,0,2012-10-28 12:53:00
7:53 AM,28.0,26.1,92,30.13,10.0,ENE,4.6,-,N/A,,Overcast,70,2012-10-28 13:53:00
8:53 AM,33.1,28.9,85,30.14,10.0,Calm,Calm,-,0.00,,Mostly Cloudy,0,2012-10-28 14:53:00
9:01 AM,32.0,28.4,87,30.16,10.0,Calm,Calm,-,N/A,,Mostly Cloudy,0,2012-10-28 15:01:00
9:53 AM,35.1,30.9,85,30.13,10.0,NW,4.6,-,N/A,,Clear,310,2012-10-28 15:53:00
10:53 AM,39.0,30.9,73,30.11,10.0,West,3.5,-,N/A,,Clear,260,2012-10-28 16:53:00
11:53 AM,44.1,33.1,65,30.09,10.0,ESE,5.8,-,N/A,,Clear,110,2012-10-28 17:53:00
12:53 PM,48.0,34.0,58,30.06,10.0,South,5.8,-,N/A,,Clear,180,2012-10-28 18:53:00
1:53 PM,53.1,34.0,48,30.04,10.0,Variable,3.5,-,N/A,,Mostly Cloudy,0,2012-10-28 19:53:00
2:44 PM,55.4,32.0,41,30.13,10.0,NW,21.9,28.8,N/A,,Clear,310,2012-10-28 20:44:00
2:53 PM,55.0,32.0,42,30.03,10.0,NW,21.9,27.6,N/A,,Clear,310,2012-10-28 20:53:00
3:53 PM,51.1,30.9,46,30.06,10.0,WNW,15.0,-,N/A,,Scattered Clouds,300,2012-10-28 21:53:00
4:53 PM,51.1,34.0,52,30.05,10.0,North,15.0,-,N/A,,Overcast,360,2012-10-28 22:53:00
5:53 PM,48.0,33.1,56,30.09,10.0,North,8.1,-,N/A,,Mostly Cloudy,10,2012-10-28 23:53:00
6:53 PM,46.0,33.1,61,30.11,10.0,North,3.5,-,N/A,,Overcast,10,2012-10-29 00:53:00
7:53 PM,46.0,34.0,63,30.10,10.0,Variable,3.5,-,N/A,,Overcast,0,2012-10-29 01:53:00
8:53 PM,44.1,35.1,71,30.09,10.0,Calm,Calm,-,N/A,,Overcast,0,2012-10-29 02:53:00
9:53 PM,46.0,34.0,63,30.07,10.0,Calm,Calm,-,N/A,,Overcast,0,2012-10-29 03:53:00
10:53 PM,45.0,34.0,65,30.08,10.0,Calm,Calm,-,N/A,,Overcast,0,2012-10-29 04:53:00
11:53 PM,42.1,35.1,76,30.06,10.0,ENE,5.8,-,N/A,,Overcast,60,2012-10-29 05:53:00